sensor_id;sensor_type;location;lat;lon;timestamp;P1;durP1;ratioP1;P2;durP2;ratioP2
16127;SDS011;8168;49.036;7.690;2022-07-23T00:01:08;9.43;;;8.33;;
16127;SDS011;8168;49.036;7.690;2022-07-23T00:03:38;9.00;;;8.10;;
16127;SDS011;8168;49.036;7.690;2022-07-23T00:06:09;10.13;;;9.10;;
16127;SDS011;8168;49.036;7.690;2022-07-23T00:08:40;8.57;;;7.67;;
16127;SDS011;8168;49.036;7.690;2022-07-23T00:11:10;8.90;;;8.10;;
16127;SDS011;8168;49.036;7.690;2022-07-23T00:13:41;8.63;;;7.80;;
16127;SDS011;8168;49.036;7.690;2022-07-23T00:16:12;10.30;;;8.30;;
16127;SDS011;8168;49.036;7.690;2022-07-23T00:18:42;10.13;;;7.70;;
16127;SDS011;8168;49.036;7.690;2022-07-23T00:21:13;9.47;;;8.47;;
16127;SDS011;8168;49.036;7.690;2022-07-23T00:23:43;8.47;;;7.57;;
16127;SDS011;8168;49.036;7.690;2022-07-23T00:26:14;12.20;;;8.90;;
16127;SDS011;8168;49.036;7.690;2022-07-23T00:28:45;9.33;;;8.13;;
16127;SDS011;8168;49.036;7.690;2022-07-23T00:31:15;9.07;;;8.20;;
16127;SDS011;8168;49.036;7.690;2022-07-23T00:33:46;9.10;;;8.20;;
16127;SDS011;8168;49.036;7.690;2022-07-23T00:36:17;11.97;;;9.03;;
16127;SDS011;8168;49.036;7.690;2022-07-23T00:38:47;8.70;;;7.90;;
16127;SDS011;8168;49.036;7.690;2022-07-23T00:41:18;9.73;;;8.00;;
16127;SDS011;8168;49.036;7.690;2022-07-23T00:43:49;9.47;;;8.50;;
16127;SDS011;8168;49.036;7.690;2022-07-23T00:46:20;9.23;;;8.13;;
16127;SDS011;8168;49.036;7.690;2022-07-23T00:48:51;8.60;;;7.80;;
16127;SDS011;8168;49.036;7.690;2022-07-23T00:51:22;8.53;;;7.47;;
16127;SDS011;8168;49.036;7.690;2022-07-23T00:53:52;8.97;;;8.07;;
16127;SDS011;8168;49.036;7.690;2022-07-23T00:56:23;9.27;;;8.37;;
16127;SDS011;8168;49.036;7.690;2022-07-23T00:58:54;8.80;;;7.93;;
16127;SDS011;8168;49.036;7.690;2022-07-23T01:01:25;10.00;;;8.23;;
16127;SDS011;8168;49.036;7.690;2022-07-23T01:03:55;8.30;;;7.50;;
16127;SDS011;8168;49.036;7.690;2022-07-23T01:06:26;8.30;;;7.50;;
16127;SDS011;8168;49.036;7.690;2022-07-23T01:08:57;9.23;;;8.27;;
16127;SDS011;8168;49.036;7.690;2022-07-23T01:11:28;9.37;;;7.83;;
16127;SDS011;8168;49.036;7.690;2022-07-23T01:14:07;8.30;;;7.47;;
16127;SDS011;8168;49.036;7.690;2022-07-23T01:16:39;9.50;;;7.73;;
16127;SDS011;8168;49.036;7.690;2022-07-23T01:19:10;9.27;;;7.93;;
16127;SDS011;8168;49.036;7.690;2022-07-23T01:21:42;10.07;;;7.63;;
16127;SDS011;8168;49.036;7.690;2022-07-23T01:24:17;8.73;;;7.93;;
16127;SDS011;8168;49.036;7.690;2022-07-23T01:26:50;8.50;;;7.70;;
16127;SDS011;8168;49.036;7.690;2022-07-23T01:29:20;7.70;;;6.90;;
16127;SDS011;8168;49.036;7.690;2022-07-23T01:31:51;7.73;;;7.03;;
16127;SDS011;8168;49.036;7.690;2022-07-23T01:34:22;7.33;;;6.63;;
16127;SDS011;8168;49.036;7.690;2022-07-23T01:36:52;7.00;;;6.30;;
16127;SDS011;8168;49.036;7.690;2022-07-23T01:39:23;9.30;;;6.53;;
16127;SDS011;8168;49.036;7.690;2022-07-23T01:41:54;6.43;;;5.80;;
16127;SDS011;8168;49.036;7.690;2022-07-23T01:44:24;7.33;;;5.87;;
16127;SDS011;8168;49.036;7.690;2022-07-23T01:46:55;7.43;;;6.73;;
16127;SDS011;8168;49.036;7.690;2022-07-23T01:49:26;6.70;;;6.00;;
16127;SDS011;8168;49.036;7.690;2022-07-23T01:51:56;7.50;;;6.70;;
16127;SDS011;8168;49.036;7.690;2022-07-23T01:54:31;7.00;;;6.40;;
16127;SDS011;8168;49.036;7.690;2022-07-23T01:57:03;7.30;;;6.10;;
16127;SDS011;8168;49.036;7.690;2022-07-23T01:59:34;6.60;;;5.97;;
16127;SDS011;8168;49.036;7.690;2022-07-23T02:02:05;7.30;;;5.87;;
16127;SDS011;8168;49.036;7.690;2022-07-23T02:04:36;7.63;;;6.93;;
16127;SDS011;8168;49.036;7.690;2022-07-23T02:07:07;7.47;;;6.77;;
16127;SDS011;8168;49.036;7.690;2022-07-23T02:09:37;7.93;;;6.63;;
16127;SDS011;8168;49.036;7.690;2022-07-23T02:12:08;8.03;;;6.77;;
16127;SDS011;8168;49.036;7.690;2022-07-23T02:14:39;7.73;;;6.70;;
16127;SDS011;8168;49.036;7.690;2022-07-23T02:17:09;7.37;;;6.13;;
16127;SDS011;8168;49.036;7.690;2022-07-23T02:19:40;7.70;;;6.60;;
16127;SDS011;8168;49.036;7.690;2022-07-23T02:22:11;6.57;;;5.97;;
16127;SDS011;8168;49.036;7.690;2022-07-23T02:24:41;6.83;;;5.73;;
16127;SDS011;8168;49.036;7.690;2022-07-23T02:27:12;6.50;;;5.90;;
16127;SDS011;8168;49.036;7.690;2022-07-23T02:29:42;11.00;;;6.67;;
16127;SDS011;8168;49.036;7.690;2022-07-23T02:32:13;7.47;;;6.77;;
16127;SDS011;8168;49.036;7.690;2022-07-23T02:34:44;7.70;;;6.80;;
16127;SDS011;8168;49.036;7.690;2022-07-23T02:37:14;8.57;;;6.30;;
16127;SDS011;8168;49.036;7.690;2022-07-23T02:39:45;7.83;;;6.53;;
16127;SDS011;8168;49.036;7.690;2022-07-23T02:42:18;6.97;;;6.27;;
16127;SDS011;8168;49.036;7.690;2022-07-23T02:44:49;6.63;;;6.03;;
16127;SDS011;8168;49.036;7.690;2022-07-23T02:47:20;6.80;;;6.10;;
16127;SDS011;8168;49.036;7.690;2022-07-23T02:49:51;6.67;;;6.07;;
16127;SDS011;8168;49.036;7.690;2022-07-23T02:52:22;6.80;;;6.20;;
16127;SDS011;8168;49.036;7.690;2022-07-23T02:54:52;7.03;;;6.30;;
16127;SDS011;8168;49.036;7.690;2022-07-23T02:57:23;7.57;;;6.30;;
16127;SDS011;8168;49.036;7.690;2022-07-23T02:59:53;6.37;;;5.73;;
16127;SDS011;8168;49.036;7.690;2022-07-23T03:02:24;7.83;;;7.13;;
16127;SDS011;8168;49.036;7.690;2022-07-23T03:04:55;6.90;;;6.20;;
16127;SDS011;8168;49.036;7.690;2022-07-23T03:07:25;6.93;;;6.23;;
16127;SDS011;8168;49.036;7.690;2022-07-23T03:09:56;8.80;;;6.63;;
16127;SDS011;8168;49.036;7.690;2022-07-23T03:12:27;7.90;;;6.70;;
16127;SDS011;8168;49.036;7.690;2022-07-23T03:14:57;6.87;;;6.27;;
16127;SDS011;8168;49.036;7.690;2022-07-23T03:17:28;9.53;;;6.60;;
16127;SDS011;8168;49.036;7.690;2022-07-23T03:19:59;6.90;;;6.30;;
16127;SDS011;8168;49.036;7.690;2022-07-23T03:22:29;8.07;;;7.07;;
16127;SDS011;8168;49.036;7.690;2022-07-23T03:25:00;7.57;;;6.77;;
16127;SDS011;8168;49.036;7.690;2022-07-23T03:27:31;7.00;;;6.30;;
16127;SDS011;8168;49.036;7.690;2022-07-23T03:30:02;9.10;;;6.53;;
16127;SDS011;8168;49.036;7.690;2022-07-23T03:32:32;7.57;;;6.87;;
16127;SDS011;8168;49.036;7.690;2022-07-23T03:35:03;9.13;;;7.27;;
16127;SDS011;8168;49.036;7.690;2022-07-23T03:37:34;8.47;;;6.70;;
16127;SDS011;8168;49.036;7.690;2022-07-23T03:40:05;7.10;;;6.40;;
16127;SDS011;8168;49.036;7.690;2022-07-23T03:42:36;8.17;;;6.43;;
16127;SDS011;8168;49.036;7.690;2022-07-23T03:45:09;7.53;;;6.50;;
16127;SDS011;8168;49.036;7.690;2022-07-23T03:47:40;7.30;;;6.00;;
16127;SDS011;8168;49.036;7.690;2022-07-23T03:50:11;7.70;;;6.57;;
16127;SDS011;8168;49.036;7.690;2022-07-23T03:52:42;6.63;;;6.03;;
16127;SDS011;8168;49.036;7.690;2022-07-23T03:55:12;7.57;;;6.77;;
16127;SDS011;8168;49.036;7.690;2022-07-23T03:57:43;9.60;;;8.43;;
16127;SDS011;8168;49.036;7.690;2022-07-23T04:00:14;12.30;;;8.37;;
16127;SDS011;8168;49.036;7.690;2022-07-23T04:02:45;8.77;;;7.87;;
16127;SDS011;8168;49.036;7.690;2022-07-23T04:05:15;9.13;;;8.23;;
16127;SDS011;8168;49.036;7.690;2022-07-23T04:07:46;10.33;;;8.63;;
16127;SDS011;8168;49.036;7.690;2022-07-23T04:10:16;10.70;;;8.57;;
16127;SDS011;8168;49.036;7.690;2022-07-23T04:12:47;10.10;;;7.40;;
16127;SDS011;8168;49.036;7.690;2022-07-23T04:15:18;9.50;;;7.60;;
16127;SDS011;8168;49.036;7.690;2022-07-23T04:17:48;8.13;;;7.33;;
16127;SDS011;8168;49.036;7.690;2022-07-23T04:20:19;8.30;;;7.23;;
16127;SDS011;8168;49.036;7.690;2022-07-23T04:22:50;11.93;;;7.50;;
16127;SDS011;8168;49.036;7.690;2022-07-23T04:25:20;9.63;;;8.37;;
16127;SDS011;8168;49.036;7.690;2022-07-23T04:27:51;8.40;;;7.50;;
16127;SDS011;8168;49.036;7.690;2022-07-23T04:30:21;10.60;;;8.10;;
16127;SDS011;8168;49.036;7.690;2022-07-23T04:32:52;9.73;;;8.30;;
16127;SDS011;8168;49.036;7.690;2022-07-23T04:35:23;8.80;;;7.77;;
16127;SDS011;8168;49.036;7.690;2022-07-23T04:37:53;9.83;;;7.83;;
16127;SDS011;8168;49.036;7.690;2022-07-23T04:40:24;9.17;;;8.23;;
16127;SDS011;8168;49.036;7.690;2022-07-23T04:42:55;9.50;;;8.13;;
16127;SDS011;8168;49.036;7.690;2022-07-23T04:45:26;8.90;;;7.80;;
16127;SDS011;8168;49.036;7.690;2022-07-23T04:47:57;8.80;;;7.40;;
16127;SDS011;8168;49.036;7.690;2022-07-23T04:50:27;8.73;;;7.63;;
16127;SDS011;8168;49.036;7.690;2022-07-23T04:52:58;8.90;;;7.60;;
16127;SDS011;8168;49.036;7.690;2022-07-23T04:55:29;8.53;;;7.67;;
16127;SDS011;8168;49.036;7.690;2022-07-23T04:57:59;8.57;;;6.90;;
16127;SDS011;8168;49.036;7.690;2022-07-23T05:00:30;12.03;;;7.40;;
16127;SDS011;8168;49.036;7.690;2022-07-23T05:03:01;8.20;;;7.07;;
16127;SDS011;8168;49.036;7.690;2022-07-23T05:05:31;8.63;;;7.20;;
16127;SDS011;8168;49.036;7.690;2022-07-23T05:08:02;8.43;;;7.03;;
16127;SDS011;8168;49.036;7.690;2022-07-23T05:10:33;7.93;;;7.13;;
16127;SDS011;8168;49.036;7.690;2022-07-23T05:13:03;8.30;;;6.90;;
16127;SDS011;8168;49.036;7.690;2022-07-23T05:15:34;8.37;;;6.90;;
16127;SDS011;8168;49.036;7.690;2022-07-23T05:18:05;8.63;;;6.83;;
16127;SDS011;8168;49.036;7.690;2022-07-23T05:20:35;8.93;;;8.03;;
16127;SDS011;8168;49.036;7.690;2022-07-23T05:23:06;9.47;;;7.83;;
16127;SDS011;8168;49.036;7.690;2022-07-23T05:25:37;8.60;;;7.53;;
16127;SDS011;8168;49.036;7.690;2022-07-23T05:28:08;7.80;;;7.00;;
16127;SDS011;8168;49.036;7.690;2022-07-23T05:30:38;9.23;;;7.17;;
16127;SDS011;8168;49.036;7.690;2022-07-23T05:33:09;8.27;;;7.47;;
16127;SDS011;8168;49.036;7.690;2022-07-23T05:35:39;10.17;;;7.87;;
16127;SDS011;8168;49.036;7.690;2022-07-23T05:38:10;9.30;;;6.90;;
16127;SDS011;8168;49.036;7.690;2022-07-23T05:40:41;8.73;;;7.13;;
16127;SDS011;8168;49.036;7.690;2022-07-23T05:43:11;11.23;;;7.23;;
16127;SDS011;8168;49.036;7.690;2022-07-23T05:45:42;8.57;;;7.37;;
16127;SDS011;8168;49.036;7.690;2022-07-23T05:48:13;8.43;;;7.50;;
16127;SDS011;8168;49.036;7.690;2022-07-23T05:50:43;8.97;;;7.73;;
16127;SDS011;8168;49.036;7.690;2022-07-23T05:53:14;13.63;;;8.07;;
16127;SDS011;8168;49.036;7.690;2022-07-23T05:55:44;8.33;;;7.47;;
16127;SDS011;8168;49.036;7.690;2022-07-23T05:58:15;8.83;;;8.00;;
16127;SDS011;8168;49.036;7.690;2022-07-23T06:00:46;9.13;;;8.23;;
16127;SDS011;8168;49.036;7.690;2022-07-23T06:03:16;8.40;;;7.60;;
16127;SDS011;8168;49.036;7.690;2022-07-23T06:05:47;8.53;;;7.63;;
16127;SDS011;8168;49.036;7.690;2022-07-23T06:08:17;8.67;;;7.77;;
16127;SDS011;8168;49.036;7.690;2022-07-23T06:10:48;8.20;;;7.40;;
16127;SDS011;8168;49.036;7.690;2022-07-23T06:13:19;8.70;;;7.80;;
16127;SDS011;8168;49.036;7.690;2022-07-23T06:15:50;8.67;;;7.50;;
16127;SDS011;8168;49.036;7.690;2022-07-23T06:18:21;8.97;;;7.30;;
16127;SDS011;8168;49.036;7.690;2022-07-23T06:20:51;8.17;;;7.37;;
16127;SDS011;8168;49.036;7.690;2022-07-23T06:23:22;8.60;;;7.70;;
16127;SDS011;8168;49.036;7.690;2022-07-23T06:25:52;9.33;;;7.60;;
16127;SDS011;8168;49.036;7.690;2022-07-23T06:28:23;8.13;;;7.33;;
16127;SDS011;8168;49.036;7.690;2022-07-23T06:30:54;8.87;;;7.63;;
16127;SDS011;8168;49.036;7.690;2022-07-23T06:33:24;8.70;;;7.90;;
16127;SDS011;8168;49.036;7.690;2022-07-23T06:35:55;8.23;;;7.40;;
16127;SDS011;8168;49.036;7.690;2022-07-23T06:38:26;9.10;;;8.00;;
16127;SDS011;8168;49.036;7.690;2022-07-23T06:40:56;8.93;;;7.87;;
16127;SDS011;8168;49.036;7.690;2022-07-23T06:43:27;8.70;;;7.80;;
16127;SDS011;8168;49.036;7.690;2022-07-23T06:46:01;9.13;;;8.23;;
16127;SDS011;8168;49.036;7.690;2022-07-23T06:48:31;8.20;;;7.40;;
16127;SDS011;8168;49.036;7.690;2022-07-23T06:51:04;8.83;;;7.97;;
16127;SDS011;8168;49.036;7.690;2022-07-23T06:53:35;8.50;;;7.53;;
16127;SDS011;8168;49.036;7.690;2022-07-23T06:56:05;8.20;;;7.40;;
16127;SDS011;8168;49.036;7.690;2022-07-23T06:58:36;7.77;;;6.97;;
16127;SDS011;8168;49.036;7.690;2022-07-23T07:01:07;8.90;;;7.10;;
16127;SDS011;8168;49.036;7.690;2022-07-23T07:03:38;7.77;;;6.77;;
16127;SDS011;8168;49.036;7.690;2022-07-23T07:06:08;9.07;;;7.20;;
16127;SDS011;8168;49.036;7.690;2022-07-23T07:08:40;8.90;;;7.37;;
16127;SDS011;8168;49.036;7.690;2022-07-23T07:11:10;7.73;;;6.97;;
16127;SDS011;8168;49.036;7.690;2022-07-23T07:13:41;9.07;;;7.83;;
16127;SDS011;8168;49.036;7.690;2022-07-23T07:16:12;8.70;;;6.90;;
16127;SDS011;8168;49.036;7.690;2022-07-23T07:18:43;8.00;;;7.20;;
16127;SDS011;8168;49.036;7.690;2022-07-23T07:21:13;8.00;;;7.20;;
16127;SDS011;8168;49.036;7.690;2022-07-23T07:23:44;7.40;;;6.80;;
16127;SDS011;8168;49.036;7.690;2022-07-23T07:26:14;7.93;;;7.07;;
16127;SDS011;8168;49.036;7.690;2022-07-23T07:28:45;8.17;;;6.50;;
16127;SDS011;8168;49.036;7.690;2022-07-23T07:31:16;8.30;;;7.37;;
16127;SDS011;8168;49.036;7.690;2022-07-23T07:33:46;9.80;;;7.17;;
16127;SDS011;8168;49.036;7.690;2022-07-23T07:36:17;7.33;;;6.63;;
16127;SDS011;8168;49.036;7.690;2022-07-23T07:38:48;7.63;;;6.37;;
16127;SDS011;8168;49.036;7.690;2022-07-23T07:41:19;7.80;;;6.90;;
16127;SDS011;8168;49.036;7.690;2022-07-23T07:43:53;8.40;;;7.23;;
16127;SDS011;8168;49.036;7.690;2022-07-23T07:46:24;7.80;;;7.10;;
16127;SDS011;8168;49.036;7.690;2022-07-23T07:48:57;8.73;;;7.27;;
16127;SDS011;8168;49.036;7.690;2022-07-23T07:51:28;7.47;;;6.68;;
16127;SDS011;8168;49.036;7.690;2022-07-23T07:53:59;9.47;;;6.90;;
16127;SDS011;8168;49.036;7.690;2022-07-23T07:56:29;9.45;;;6.90;;
16127;SDS011;8168;49.036;7.690;2022-07-23T07:59:00;7.83;;;7.03;;
16127;SDS011;8168;49.036;7.690;2022-07-23T08:01:31;7.85;;;6.88;;
16127;SDS011;8168;49.036;7.690;2022-07-23T08:04:02;7.40;;;6.30;;
16127;SDS011;8168;49.036;7.690;2022-07-23T08:06:32;7.75;;;6.95;;
16127;SDS011;8168;49.036;7.690;2022-07-23T08:09:03;7.68;;;6.88;;
16127;SDS011;8168;49.036;7.690;2022-07-23T08:11:34;7.18;;;6.57;;
16127;SDS011;8168;49.036;7.690;2022-07-23T08:14:05;8.38;;;6.90;;
16127;SDS011;8168;49.036;7.690;2022-07-23T08:16:35;8.18;;;7.35;;
16127;SDS011;8168;49.036;7.690;2022-07-23T08:19:06;7.75;;;6.57;;
16127;SDS011;8168;49.036;7.690;2022-07-23T08:21:36;9.00;;;7.40;;
16127;SDS011;8168;49.036;7.690;2022-07-23T08:24:07;7.30;;;6.55;;
16127;SDS011;8168;49.036;7.690;2022-07-23T08:26:38;7.53;;;6.72;;
16127;SDS011;8168;49.036;7.690;2022-07-23T08:29:09;8.43;;;6.97;;
16127;SDS011;8168;49.036;7.690;2022-07-23T08:31:40;8.80;;;6.97;;
16127;SDS011;8168;49.036;7.690;2022-07-23T08:34:11;8.90;;;6.15;;
16127;SDS011;8168;49.036;7.690;2022-07-23T08:36:41;12.75;;;6.90;;
16127;SDS011;8168;49.036;7.690;2022-07-23T08:39:12;9.50;;;7.82;;
16127;SDS011;8168;49.036;7.690;2022-07-23T08:41:42;9.30;;;7.28;;
16127;SDS011;8168;49.036;7.690;2022-07-23T08:44:15;11.27;;;7.47;;
16127;SDS011;8168;49.036;7.690;2022-07-23T08:46:46;7.55;;;6.75;;
16127;SDS011;8168;49.036;7.690;2022-07-23T08:49:18;7.80;;;7.05;;
16127;SDS011;8168;49.036;7.690;2022-07-23T08:51:48;7.45;;;6.75;;
16127;SDS011;8168;49.036;7.690;2022-07-23T08:54:20;8.07;;;7.20;;
16127;SDS011;8168;49.036;7.690;2022-07-23T08:56:52;7.55;;;6.85;;
16127;SDS011;8168;49.036;7.690;2022-07-23T08:59:22;7.82;;;6.70;;
16127;SDS011;8168;49.036;7.690;2022-07-23T09:01:53;8.00;;;7.18;;
16127;SDS011;8168;49.036;7.690;2022-07-23T09:04:23;12.00;;;7.00;;
16127;SDS011;8168;49.036;7.690;2022-07-23T09:06:54;8.18;;;6.85;;
16127;SDS011;8168;49.036;7.690;2022-07-23T09:09:26;7.85;;;6.88;;
16127;SDS011;8168;49.036;7.690;2022-07-23T09:12:03;7.90;;;7.10;;
16127;SDS011;8168;49.036;7.690;2022-07-23T09:17:10;8.23;;;6.55;;
16127;SDS011;8168;49.036;7.690;2022-07-23T09:19:42;8.13;;;6.65;;
16127;SDS011;8168;49.036;7.690;2022-07-23T09:25:02;7.70;;;6.93;;
16127;SDS011;8168;49.036;7.690;2022-07-23T09:30:16;7.20;;;6.35;;
16127;SDS011;8168;49.036;7.690;2022-07-23T09:38:22;7.25;;;6.55;;
16127;SDS011;8168;49.036;7.690;2022-07-23T09:41:10;7.35;;;6.50;;
16127;SDS011;8168;49.036;7.690;2022-07-23T09:43:41;7.30;;;6.60;;
16127;SDS011;8168;49.036;7.690;2022-07-23T09:46:19;7.43;;;6.63;;
16127;SDS011;8168;49.036;7.690;2022-07-23T09:48:57;7.80;;;6.82;;
16127;SDS011;8168;49.036;7.690;2022-07-23T09:51:27;7.40;;;5.80;;
16127;SDS011;8168;49.036;7.690;2022-07-23T09:54:07;5.82;;;5.30;;
16127;SDS011;8168;49.036;7.690;2022-07-23T09:57:11;7.28;;;6.57;;
16127;SDS011;8168;49.036;7.690;2022-07-23T09:59:46;7.35;;;5.88;;
16127;SDS011;8168;49.036;7.690;2022-07-23T10:02:17;7.75;;;6.47;;
16127;SDS011;8168;49.036;7.690;2022-07-23T10:04:48;7.53;;;6.15;;
16127;SDS011;8168;49.036;7.690;2022-07-23T10:07:21;7.20;;;6.22;;
16127;SDS011;8168;49.036;7.690;2022-07-23T10:09:53;7.20;;;6.50;;
16127;SDS011;8168;49.036;7.690;2022-07-23T10:12:24;7.28;;;6.00;;
16127;SDS011;8168;49.036;7.690;2022-07-23T10:15:02;8.20;;;6.97;;
16127;SDS011;8168;49.036;7.690;2022-07-23T10:17:36;11.20;;;7.00;;
16127;SDS011;8168;49.036;7.690;2022-07-23T10:20:07;7.72;;;6.93;;
16127;SDS011;8168;49.036;7.690;2022-07-23T10:26:10;6.82;;;6.22;;
16127;SDS011;8168;49.036;7.690;2022-07-23T10:31:56;8.48;;;6.70;;
16127;SDS011;8168;49.036;7.690;2022-07-23T10:37:16;8.52;;;6.80;;
16127;SDS011;8168;49.036;7.690;2022-07-23T10:42:52;7.13;;;6.43;;
16127;SDS011;8168;49.036;7.690;2022-07-23T10:48:12;8.30;;;7.43;;
16127;SDS011;8168;49.036;7.690;2022-07-23T10:53:52;9.07;;;7.45;;
16127;SDS011;8168;49.036;7.690;2022-07-23T10:59:26;7.78;;;7.07;;
16127;SDS011;8168;49.036;7.690;2022-07-23T11:02:39;7.63;;;6.65;;
16127;SDS011;8168;49.036;7.690;2022-07-23T11:04:52;9.10;;;7.28;;
16127;SDS011;8168;49.036;7.690;2022-07-23T11:07:23;7.82;;;6.75;;
16127;SDS011;8168;49.036;7.690;2022-07-23T11:09:53;7.80;;;6.85;;
16127;SDS011;8168;49.036;7.690;2022-07-23T11:15:10;6.93;;;6.32;;
16127;SDS011;8168;49.036;7.690;2022-07-23T11:20:15;6.88;;;6.18;;
16127;SDS011;8168;49.036;7.690;2022-07-23T11:22:48;7.35;;;6.65;;
16127;SDS011;8168;49.036;7.690;2022-07-23T11:27:51;7.43;;;6.72;;
16127;SDS011;8168;49.036;7.690;2022-07-23T11:35:39;7.82;;;6.75;;
16127;SDS011;8168;49.036;7.690;2022-07-23T11:40:49;7.72;;;5.85;;
16127;SDS011;8168;49.036;7.690;2022-07-23T11:43:21;6.93;;;6.05;;
16127;SDS011;8168;49.036;7.690;2022-07-23T11:45:54;7.55;;;6.47;;
16127;SDS011;8168;49.036;7.690;2022-07-23T11:48:29;7.18;;;6.53;;
16127;SDS011;8168;49.036;7.690;2022-07-23T11:51:01;7.35;;;6.65;;
16127;SDS011;8168;49.036;7.690;2022-07-23T11:53:32;7.00;;;6.40;;
16127;SDS011;8168;49.036;7.690;2022-07-23T11:56:08;6.32;;;5.72;;
16127;SDS011;8168;49.036;7.690;2022-07-23T11:58:40;6.70;;;6.10;;
16127;SDS011;8168;49.036;7.690;2022-07-23T12:01:25;5.95;;;5.45;;
16127;SDS011;8168;49.036;7.690;2022-07-23T12:03:55;6.85;;;5.68;;
16127;SDS011;8168;49.036;7.690;2022-07-23T12:06:26;6.95;;;6.25;;
16127;SDS011;8168;49.036;7.690;2022-07-23T12:08:56;7.40;;;5.93;;
16127;SDS011;8168;49.036;7.690;2022-07-23T12:11:27;6.15;;;5.65;;
16127;SDS011;8168;49.036;7.690;2022-07-23T12:13:58;6.90;;;6.20;;
16127;SDS011;8168;49.036;7.690;2022-07-23T12:16:28;6.75;;;5.95;;
16127;SDS011;8168;49.036;7.690;2022-07-23T12:18:59;7.05;;;6.35;;
16127;SDS011;8168;49.036;7.690;2022-07-23T12:21:30;6.38;;;5.78;;
16127;SDS011;8168;49.036;7.690;2022-07-23T12:24:06;7.22;;;6.57;;
16127;SDS011;8168;49.036;7.690;2022-07-23T12:26:37;6.70;;;6.10;;
16127;SDS011;8168;49.036;7.690;2022-07-23T12:29:08;6.05;;;5.55;;
16127;SDS011;8168;49.036;7.690;2022-07-23T12:31:39;6.45;;;5.88;;
16127;SDS011;8168;49.036;7.690;2022-07-23T12:34:13;6.32;;;5.72;;
16127;SDS011;8168;49.036;7.690;2022-07-23T12:36:44;6.60;;;5.90;;
16127;SDS011;8168;49.036;7.690;2022-07-23T12:39:28;6.50;;;6.00;;
16127;SDS011;8168;49.036;7.690;2022-07-23T12:42:02;8.13;;;5.65;;
16127;SDS011;8168;49.036;7.690;2022-07-23T12:44:41;6.63;;;5.93;;
16127;SDS011;8168;49.036;7.690;2022-07-23T12:53:15;5.95;;;5.45;;
16127;SDS011;8168;49.036;7.690;2022-07-23T12:55:48;6.45;;;5.85;;
16127;SDS011;8168;49.036;7.690;2022-07-23T12:58:20;6.72;;;5.80;;
16127;SDS011;8168;49.036;7.690;2022-07-23T13:03:39;6.50;;;5.40;;
16127;SDS011;8168;49.036;7.690;2022-07-23T13:06:11;6.07;;;5.55;;
16127;SDS011;8168;49.036;7.690;2022-07-23T13:08:41;6.55;;;5.95;;
16127;SDS011;8168;49.036;7.690;2022-07-23T13:11:12;7.65;;;6.32;;
16127;SDS011;8168;49.036;7.690;2022-07-23T13:13:43;5.53;;;5.03;;
16127;SDS011;8168;49.036;7.690;2022-07-23T13:16:14;7.30;;;5.18;;
16127;SDS011;8168;49.036;7.690;2022-07-23T13:18:44;6.28;;;5.68;;
16127;SDS011;8168;49.036;7.690;2022-07-23T13:21:15;6.05;;;5.55;;
16127;SDS011;8168;49.036;7.690;2022-07-23T13:23:46;6.60;;;5.80;;
16127;SDS011;8168;49.036;7.690;2022-07-23T13:26:17;6.38;;;5.88;;
16127;SDS011;8168;49.036;7.690;2022-07-23T13:28:48;6.68;;;6.07;;
16127;SDS011;8168;49.036;7.690;2022-07-23T13:31:18;6.68;;;5.82;;
16127;SDS011;8168;49.036;7.690;2022-07-23T13:33:49;7.15;;;6.45;;
16127;SDS011;8168;49.036;7.690;2022-07-23T13:36:20;6.18;;;5.35;;
16127;SDS011;8168;49.036;7.690;2022-07-23T13:38:50;6.50;;;5.90;;
16127;SDS011;8168;49.036;7.690;2022-07-23T13:41:21;6.38;;;5.78;;
16127;SDS011;8168;49.036;7.690;2022-07-23T13:43:52;6.20;;;5.70;;
16127;SDS011;8168;49.036;7.690;2022-07-23T13:46:22;7.22;;;6.20;;
16127;SDS011;8168;49.036;7.690;2022-07-23T13:48:53;6.90;;;5.60;;
16127;SDS011;8168;49.036;7.690;2022-07-23T13:51:24;8.15;;;6.65;;
16127;SDS011;8168;49.036;7.690;2022-07-23T13:53:54;7.07;;;6.38;;
16127;SDS011;8168;49.036;7.690;2022-07-23T13:56:25;6.25;;;5.65;;
16127;SDS011;8168;49.036;7.690;2022-07-23T13:58:55;7.68;;;6.13;;
16127;SDS011;8168;49.036;7.690;2022-07-23T14:01:26;6.80;;;6.18;;
16127;SDS011;8168;49.036;7.690;2022-07-23T14:03:57;7.03;;;6.32;;
16127;SDS011;8168;49.036;7.690;2022-07-23T14:06:27;6.53;;;5.93;;
16127;SDS011;8168;49.036;7.690;2022-07-23T14:08:58;7.45;;;5.85;;
16127;SDS011;8168;49.036;7.690;2022-07-23T14:11:29;5.55;;;4.97;;
16127;SDS011;8168;49.036;7.690;2022-07-23T14:14:00;6.03;;;5.50;;
16127;SDS011;8168;49.036;7.690;2022-07-23T14:16:32;8.27;;;6.22;;
16127;SDS011;8168;49.036;7.690;2022-07-23T14:19:02;6.72;;;6.07;;
16127;SDS011;8168;49.036;7.690;2022-07-23T14:21:33;6.72;;;5.25;;
16127;SDS011;8168;49.036;7.690;2022-07-23T14:24:03;6.32;;;5.72;;
16127;SDS011;8168;49.036;7.690;2022-07-23T14:26:34;6.30;;;5.70;;
16127;SDS011;8168;49.036;7.690;2022-07-23T14:29:05;6.70;;;5.78;;
16127;SDS011;8168;49.036;7.690;2022-07-23T14:31:36;9.38;;;5.53;;
16127;SDS011;8168;49.036;7.690;2022-07-23T14:34:06;6.32;;;5.72;;
16127;SDS011;8168;49.036;7.690;2022-07-23T14:36:37;5.05;;;4.55;;
16127;SDS011;8168;49.036;7.690;2022-07-23T14:39:08;5.53;;;5.03;;
16127;SDS011;8168;49.036;7.690;2022-07-23T14:41:39;6.38;;;5.50;;
16127;SDS011;8168;49.036;7.690;2022-07-23T14:44:10;6.22;;;5.63;;
16127;SDS011;8168;49.036;7.690;2022-07-23T14:46:40;8.00;;;5.38;;
16127;SDS011;8168;49.036;7.690;2022-07-23T14:49:11;8.13;;;5.10;;
16127;SDS011;8168;49.036;7.690;2022-07-23T14:51:42;6.10;;;5.47;;
16127;SDS011;8168;49.036;7.690;2022-07-23T14:54:13;5.40;;;5.00;;
16127;SDS011;8168;49.036;7.690;2022-07-23T14:56:44;5.75;;;5.25;;
16127;SDS011;8168;49.036;7.690;2022-07-23T14:59:15;6.22;;;5.65;;
16127;SDS011;8168;49.036;7.690;2022-07-23T15:01:45;5.97;;;4.95;;
16127;SDS011;8168;49.036;7.690;2022-07-23T15:04:16;5.80;;;4.72;;
16127;SDS011;8168;49.036;7.690;2022-07-23T15:06:47;5.75;;;4.97;;
16127;SDS011;8168;49.036;7.690;2022-07-23T15:09:18;5.28;;;4.78;;
16127;SDS011;8168;49.036;7.690;2022-07-23T15:11:48;5.65;;;5.13;;
16127;SDS011;8168;49.036;7.690;2022-07-23T15:14:19;5.15;;;4.75;;
16127;SDS011;8168;49.036;7.690;2022-07-23T15:16:50;5.60;;;5.10;;
16127;SDS011;8168;49.036;7.690;2022-07-23T15:19:21;5.65;;;5.22;;
16127;SDS011;8168;49.036;7.690;2022-07-23T15:21:51;5.25;;;4.63;;
16127;SDS011;8168;49.036;7.690;2022-07-23T15:24:22;5.78;;;5.25;;
16127;SDS011;8168;49.036;7.690;2022-07-23T15:26:53;6.95;;;5.43;;
16127;SDS011;8168;49.036;7.690;2022-07-23T15:29:23;5.38;;;4.97;;
16127;SDS011;8168;49.036;7.690;2022-07-23T15:31:54;5.78;;;4.85;;
16127;SDS011;8168;49.036;7.690;2022-07-23T15:34:25;5.32;;;4.80;;
16127;SDS011;8168;49.036;7.690;2022-07-23T15:36:59;4.97;;;4.57;;
16127;SDS011;8168;49.036;7.690;2022-07-23T15:39:31;5.50;;;4.97;;
16127;SDS011;8168;49.036;7.690;2022-07-23T15:42:02;5.60;;;5.10;;
16127;SDS011;8168;49.036;7.690;2022-07-23T15:44:33;5.80;;;4.65;;
16127;SDS011;8168;49.036;7.690;2022-07-23T15:47:03;5.43;;;4.88;;
16127;SDS011;8168;49.036;7.690;2022-07-23T15:49:34;5.03;;;4.63;;
16127;SDS011;8168;49.036;7.690;2022-07-23T15:52:05;6.68;;;5.35;;
16127;SDS011;8168;49.036;7.690;2022-07-23T15:54:36;5.53;;;5.03;;
16127;SDS011;8168;49.036;7.690;2022-07-23T15:57:08;7.97;;;5.05;;
16127;SDS011;8168;49.036;7.690;2022-07-23T15:59:39;5.85;;;5.25;;
16127;SDS011;8168;49.036;7.690;2022-07-23T16:02:09;5.70;;;5.15;;
16127;SDS011;8168;49.036;7.690;2022-07-23T16:04:40;5.75;;;5.18;;
16127;SDS011;8168;49.036;7.690;2022-07-23T16:07:11;5.18;;;4.57;;
16127;SDS011;8168;49.036;7.690;2022-07-23T16:09:42;6.70;;;5.10;;
16127;SDS011;8168;49.036;7.690;2022-07-23T16:12:13;4.85;;;4.45;;
16127;SDS011;8168;49.036;7.690;2022-07-23T16:14:44;5.32;;;4.57;;
16127;SDS011;8168;49.036;7.690;2022-07-23T16:17:14;5.45;;;4.93;;
16127;SDS011;8168;49.036;7.690;2022-07-23T16:19:45;5.68;;;5.07;;
16127;SDS011;8168;49.036;7.690;2022-07-23T16:22:16;6.22;;;5.20;;
16127;SDS011;8168;49.036;7.690;2022-07-23T16:24:47;5.50;;;5.00;;